sensor_id;sensor_type;location;lat;lon;timestamp;P1;durP1;ratioP1;P2;durP2;ratioP2
5923;SDS011;2987;50.884;14.818;2023-07-13T00:02:07;3.90;;;3.37;;
5923;SDS011;2987;50.884;14.818;2023-07-13T00:04:34;7.13;;;3.20;;
5923;SDS011;2987;50.884;14.818;2023-07-13T00:07:00;3.40;;;3.10;;
5923;SDS011;2987;50.884;14.818;2023-07-13T00:09:25;5.00;;;3.33;;
5923;SDS011;2987;50.884;14.818;2023-07-13T00:11:53;4.90;;;3.20;;
5923;SDS011;2987;50.884;14.818;2023-07-13T00:16:47;5.83;;;3.17;;
5923;SDS011;2987;50.884;14.818;2023-07-13T00:19:14;4.60;;;3.20;;
5923;SDS011;2987;50.884;14.818;2023-07-13T00:21:40;3.83;;;2.70;;
5923;SDS011;2987;50.884;14.818;2023-07-13T00:24:07;4.70;;;3.30;;
5923;SDS011;2987;50.884;14.818;2023-07-13T00:26:38;3.67;;;3.37;;
5923;SDS011;2987;50.884;14.818;2023-07-13T00:29:05;3.63;;;3.00;;
5923;SDS011;2987;50.884;14.818;2023-07-13T00:31:34;3.90;;;3.00;;
5923;SDS011;2987;50.884;14.818;2023-07-13T00:34:01;6.10;;;2.90;;
5923;SDS011;2987;50.884;14.818;2023-07-13T00:36:27;7.07;;;3.23;;
5923;SDS011;2987;50.884;14.818;2023-07-13T00:38:56;3.40;;;3.10;;
5923;SDS011;2987;50.884;14.818;2023-07-13T00:41:23;3.70;;;3.30;;
5923;SDS011;2987;50.884;14.818;2023-07-13T00:43:49;3.77;;;2.80;;
5923;SDS011;2987;50.884;14.818;2023-07-13T00:46:17;3.97;;;3.13;;
5923;SDS011;2987;50.884;14.818;2023-07-13T00:48:48;3.13;;;2.87;;
5923;SDS011;2987;50.884;14.818;2023-07-13T00:53:46;4.40;;;3.30;;
5923;SDS011;2987;50.884;14.818;2023-07-13T00:56:12;3.57;;;3.20;;
5923;SDS011;2987;50.884;14.818;2023-07-13T00:58:39;3.80;;;3.40;;
5923;SDS011;2987;50.884;14.818;2023-07-13T01:01:05;5.53;;;3.73;;
5923;SDS011;2987;50.884;14.818;2023-07-13T01:03:32;3.07;;;2.77;;
5923;SDS011;2987;50.884;14.818;2023-07-13T01:06:00;5.30;;;3.10;;
5923;SDS011;2987;50.884;14.818;2023-07-13T01:08:26;4.60;;;3.03;;
5923;SDS011;2987;50.884;14.818;2023-07-13T01:10:54;3.23;;;2.70;;
5923;SDS011;2987;50.884;14.818;2023-07-13T01:13:22;4.20;;;2.30;;
5923;SDS011;2987;50.884;14.818;2023-07-13T01:15:49;3.10;;;2.80;;
5923;SDS011;2987;50.884;14.818;2023-07-13T01:18:25;3.27;;;2.90;;
5923;SDS011;2987;50.884;14.818;2023-07-13T01:20:55;3.20;;;2.57;;
5923;SDS011;2987;50.884;14.818;2023-07-13T01:23:24;5.73;;;2.23;;
5923;SDS011;2987;50.884;14.818;2023-07-13T01:25:54;4.00;;;2.63;;
5923;SDS011;2987;50.884;14.818;2023-07-13T01:28:22;6.03;;;2.93;;
5923;SDS011;2987;50.884;14.818;2023-07-13T01:30:52;4.50;;;2.30;;
5923;SDS011;2987;50.884;14.818;2023-07-13T01:33:18;4.27;;;2.30;;
5923;SDS011;2987;50.884;14.818;2023-07-13T01:35:45;7.57;;;2.50;;
5923;SDS011;2987;50.884;14.818;2023-07-13T01:38:13;2.60;;;2.40;;
5923;SDS011;2987;50.884;14.818;2023-07-13T01:40:40;5.53;;;2.57;;
5923;SDS011;2987;50.884;14.818;2023-07-13T01:43:06;4.60;;;2.70;;
5923;SDS011;2987;50.884;14.818;2023-07-13T01:45:32;6.43;;;3.00;;
5923;SDS011;2987;50.884;14.818;2023-07-13T01:47:59;9.40;;;2.60;;
5923;SDS011;2987;50.884;14.818;2023-07-13T01:50:25;3.73;;;2.87;;
5923;SDS011;2987;50.884;14.818;2023-07-13T01:52:52;5.67;;;3.07;;
5923;SDS011;2987;50.884;14.818;2023-07-13T01:55:18;4.07;;;3.00;;
5923;SDS011;2987;50.884;14.818;2023-07-13T01:57:45;3.87;;;3.03;;
5923;SDS011;2987;50.884;14.818;2023-07-13T02:00:12;2.93;;;2.53;;
5923;SDS011;2987;50.884;14.818;2023-07-13T02:02:42;5.53;;;2.80;;
5923;SDS011;2987;50.884;14.818;2023-07-13T02:05:08;3.87;;;2.63;;
5923;SDS011;2987;50.884;14.818;2023-07-13T02:07:34;3.77;;;2.67;;
5923;SDS011;2987;50.884;14.818;2023-07-13T02:10:00;2.70;;;2.50;;
5923;SDS011;2987;50.884;14.818;2023-07-13T02:12:26;3.47;;;3.00;;
5923;SDS011;2987;50.884;14.818;2023-07-13T02:14:53;4.23;;;3.00;;
5923;SDS011;2987;50.884;14.818;2023-07-13T02:17:19;4.40;;;2.87;;
5923;SDS011;2987;50.884;14.818;2023-07-13T02:19:44;8.23;;;3.20;;
5923;SDS011;2987;50.884;14.818;2023-07-13T02:22:11;6.60;;;3.40;;
5923;SDS011;2987;50.884;14.818;2023-07-13T02:24:37;4.03;;;3.10;;
5923;SDS011;2987;50.884;14.818;2023-07-13T02:27:04;8.90;;;3.30;;
5923;SDS011;2987;50.884;14.818;2023-07-13T02:29:30;8.97;;;4.37;;
5923;SDS011;2987;50.884;14.818;2023-07-13T02:31:56;6.20;;;3.60;;
5923;SDS011;2987;50.884;14.818;2023-07-13T02:34:23;5.13;;;3.67;;
5923;SDS011;2987;50.884;14.818;2023-07-13T02:36:49;3.60;;;3.30;;
5923;SDS011;2987;50.884;14.818;2023-07-13T02:41:41;8.73;;;4.33;;
5923;SDS011;2987;50.884;14.818;2023-07-13T02:44:07;5.23;;;3.47;;
5923;SDS011;2987;50.884;14.818;2023-07-13T02:46:34;4.10;;;3.20;;
5923;SDS011;2987;50.884;14.818;2023-07-13T02:49:01;4.83;;;3.40;;
5923;SDS011;2987;50.884;14.818;2023-07-13T02:51:28;5.20;;;3.60;;
5923;SDS011;2987;50.884;14.818;2023-07-13T02:53:55;5.97;;;3.87;;
5923;SDS011;2987;50.884;14.818;2023-07-13T02:56:23;5.03;;;4.07;;
5923;SDS011;2987;50.884;14.818;2023-07-13T02:58:50;4.60;;;3.73;;
5923;SDS011;2987;50.884;14.818;2023-07-13T03:01:17;6.00;;;4.10;;
5923;SDS011;2987;50.884;14.818;2023-07-13T03:03:44;4.33;;;3.87;;
5923;SDS011;2987;50.884;14.818;2023-07-13T03:06:12;4.63;;;4.23;;
5923;SDS011;2987;50.884;14.818;2023-07-13T03:08:50;7.63;;;4.83;;
5923;SDS011;2987;50.884;14.818;2023-07-13T03:11:18;5.10;;;4.60;;
5923;SDS011;2987;50.884;14.818;2023-07-13T03:13:51;5.17;;;4.10;;
5923;SDS011;2987;50.884;14.818;2023-07-13T03:16:20;4.50;;;4.10;;
5923;SDS011;2987;50.884;14.818;2023-07-13T03:18:48;5.30;;;4.80;;
5923;SDS011;2987;50.884;14.818;2023-07-13T03:21:15;5.57;;;4.20;;
5923;SDS011;2987;50.884;14.818;2023-07-13T03:23:42;4.60;;;3.90;;
5923;SDS011;2987;50.884;14.818;2023-07-13T03:26:09;6.03;;;4.10;;
5923;SDS011;2987;50.884;14.818;2023-07-13T03:28:40;5.63;;;4.40;;
5923;SDS011;2987;50.884;14.818;2023-07-13T03:31:08;6.63;;;4.73;;
5923;SDS011;2987;50.884;14.818;2023-07-13T03:33:37;5.00;;;4.50;;
5923;SDS011;2987;50.884;14.818;2023-07-13T03:36:04;6.03;;;4.87;;
5923;SDS011;2987;50.884;14.818;2023-07-13T03:38:32;14.30;;;6.23;;
5923;SDS011;2987;50.884;14.818;2023-07-13T03:41:01;11.07;;;5.97;;
5923;SDS011;2987;50.884;14.818;2023-07-13T03:43:28;17.73;;;6.70;;
5923;SDS011;2987;50.884;14.818;2023-07-13T03:45:54;15.00;;;5.97;;
5923;SDS011;2987;50.884;14.818;2023-07-13T03:48:20;8.67;;;5.53;;
5923;SDS011;2987;50.884;14.818;2023-07-13T03:50:47;8.17;;;5.27;;
5923;SDS011;2987;50.884;14.818;2023-07-13T03:53:14;8.63;;;5.43;;
5923;SDS011;2987;50.884;14.818;2023-07-13T03:55:41;5.83;;;5.20;;
5923;SDS011;2987;50.884;14.818;2023-07-13T04:03:27;9.13;;;6.33;;
5923;SDS011;2987;50.884;14.818;2023-07-13T04:08:29;6.47;;;5.87;;
5923;SDS011;2987;50.884;14.818;2023-07-13T04:10:56;10.60;;;6.33;;
5923;SDS011;2987;50.884;14.818;2023-07-13T04:13:23;7.03;;;5.33;;
5923;SDS011;2987;50.884;14.818;2023-07-13T04:15:50;7.63;;;5.37;;
5923;SDS011;2987;50.884;14.818;2023-07-13T04:20:42;7.43;;;5.50;;
5923;SDS011;2987;50.884;14.818;2023-07-13T04:23:08;7.60;;;6.00;;
5923;SDS011;2987;50.884;14.818;2023-07-13T04:25:34;8.60;;;5.83;;
5923;SDS011;2987;50.884;14.818;2023-07-13T04:28:00;8.77;;;5.80;;
5923;SDS011;2987;50.884;14.818;2023-07-13T04:30:27;9.57;;;6.20;;
5923;SDS011;2987;50.884;14.818;2023-07-13T04:32:53;12.53;;;5.87;;
5923;SDS011;2987;50.884;14.818;2023-07-13T04:35:19;7.83;;;6.03;;
5923;SDS011;2987;50.884;14.818;2023-07-13T04:37:46;7.73;;;5.10;;
5923;SDS011;2987;50.884;14.818;2023-07-13T04:40:16;7.30;;;5.80;;
5923;SDS011;2987;50.884;14.818;2023-07-13T04:42:43;7.03;;;5.90;;
5923;SDS011;2987;50.884;14.818;2023-07-13T04:45:10;7.90;;;5.80;;
5923;SDS011;2987;50.884;14.818;2023-07-13T04:47:37;7.27;;;5.67;;
5923;SDS011;2987;50.884;14.818;2023-07-13T04:50:03;6.97;;;5.40;;
5923;SDS011;2987;50.884;14.818;2023-07-13T04:52:29;5.90;;;5.17;;
5923;SDS011;2987;50.884;14.818;2023-07-13T04:54:55;7.50;;;5.83;;
5923;SDS011;2987;50.884;14.818;2023-07-13T04:57:21;7.23;;;6.13;;
5923;SDS011;2987;50.884;14.818;2023-07-13T04:59:47;5.80;;;5.20;;
5923;SDS011;2987;50.884;14.818;2023-07-13T05:02:13;8.60;;;6.30;;
5923;SDS011;2987;50.884;14.818;2023-07-13T05:04:39;9.80;;;6.27;;
5923;SDS011;2987;50.884;14.818;2023-07-13T05:07:05;8.17;;;6.20;;
5923;SDS011;2987;50.884;14.818;2023-07-13T05:09:31;9.53;;;6.47;;
5923;SDS011;2987;50.884;14.818;2023-07-13T05:11:58;9.13;;;5.93;;
5923;SDS011;2987;50.884;14.818;2023-07-13T05:14:24;6.13;;;5.43;;
5923;SDS011;2987;50.884;14.818;2023-07-13T05:16:50;7.37;;;5.50;;
5923;SDS011;2987;50.884;14.818;2023-07-13T05:19:16;6.57;;;5.90;;
5923;SDS011;2987;50.884;14.818;2023-07-13T05:21:42;6.10;;;5.50;;
5923;SDS011;2987;50.884;14.818;2023-07-13T05:24:08;7.07;;;5.27;;
5923;SDS011;2987;50.884;14.818;2023-07-13T05:26:33;6.07;;;5.23;;
5923;SDS011;2987;50.884;14.818;2023-07-13T05:28:59;5.63;;;5.10;;
5923;SDS011;2987;50.884;14.818;2023-07-13T05:31:25;8.23;;;5.10;;
5923;SDS011;2987;50.884;14.818;2023-07-13T05:33:51;6.83;;;5.47;;
5923;SDS011;2987;50.884;14.818;2023-07-13T05:36:17;6.20;;;5.60;;
5923;SDS011;2987;50.884;14.818;2023-07-13T05:38:43;7.70;;;4.63;;
5923;SDS011;2987;50.884;14.818;2023-07-13T05:41:09;6.60;;;5.00;;
5923;SDS011;2987;50.884;14.818;2023-07-13T05:43:35;6.77;;;5.00;;
5923;SDS011;2987;50.884;14.818;2023-07-13T05:46:01;5.40;;;4.87;;
5923;SDS011;2987;50.884;14.818;2023-07-13T05:48:28;6.77;;;4.80;;
5923;SDS011;2987;50.884;14.818;2023-07-13T05:50:54;5.63;;;5.00;;
5923;SDS011;2987;50.884;14.818;2023-07-13T05:53:19;9.53;;;5.20;;
5923;SDS011;2987;50.884;14.818;2023-07-13T05:55:46;5.00;;;4.50;;
5923;SDS011;2987;50.884;14.818;2023-07-13T05:58:16;7.70;;;4.87;;
5923;SDS011;2987;50.884;14.818;2023-07-13T06:00:42;8.47;;;5.07;;
5923;SDS011;2987;50.884;14.818;2023-07-13T06:03:09;4.77;;;4.37;;
5923;SDS011;2987;50.884;14.818;2023-07-13T06:05:36;6.40;;;4.10;;
5923;SDS011;2987;50.884;14.818;2023-07-13T06:08:03;6.63;;;4.17;;
5923;SDS011;2987;50.884;14.818;2023-07-13T06:10:32;4.80;;;3.80;;
5923;SDS011;2987;50.884;14.818;2023-07-13T06:13:00;6.60;;;4.17;;
5923;SDS011;2987;50.884;14.818;2023-07-13T06:15:26;7.77;;;4.87;;
5923;SDS011;2987;50.884;14.818;2023-07-13T06:17:52;4.03;;;3.60;;
5923;SDS011;2987;50.884;14.818;2023-07-13T06:20:18;5.53;;;3.43;;
5923;SDS011;2987;50.884;14.818;2023-07-13T06:22:44;7.53;;;3.43;;
5923;SDS011;2987;50.884;14.818;2023-07-13T06:25:10;4.80;;;4.07;;
5923;SDS011;2987;50.884;14.818;2023-07-13T06:27:36;5.60;;;3.60;;
5923;SDS011;2987;50.884;14.818;2023-07-13T06:30:02;3.93;;;3.63;;
5923;SDS011;2987;50.884;14.818;2023-07-13T06:32:28;3.23;;;2.93;;
5923;SDS011;2987;50.884;14.818;2023-07-13T06:34:54;5.23;;;3.10;;
5923;SDS011;2987;50.884;14.818;2023-07-13T06:37:20;3.00;;;2.80;;
5923;SDS011;2987;50.884;14.818;2023-07-13T06:39:46;5.67;;;3.40;;
5923;SDS011;2987;50.884;14.818;2023-07-13T06:42:12;3.77;;;2.87;;
5923;SDS011;2987;50.884;14.818;2023-07-13T06:44:38;4.30;;;2.93;;
5923;SDS011;2987;50.884;14.818;2023-07-13T06:47:04;3.23;;;2.93;;
5923;SDS011;2987;50.884;14.818;2023-07-13T06:49:30;3.43;;;2.73;;
5923;SDS011;2987;50.884;14.818;2023-07-13T06:51:56;6.10;;;2.70;;
5923;SDS011;2987;50.884;14.818;2023-07-13T06:54:22;4.70;;;2.80;;
5923;SDS011;2987;50.884;14.818;2023-07-13T06:56:48;5.33;;;2.43;;
5923;SDS011;2987;50.884;14.818;2023-07-13T06:59:14;4.07;;;2.80;;
5923;SDS011;2987;50.884;14.818;2023-07-13T07:01:40;9.70;;;3.30;;
5923;SDS011;2987;50.884;14.818;2023-07-13T07:04:06;4.53;;;2.80;;
5923;SDS011;2987;50.884;14.818;2023-07-13T07:06:32;4.07;;;3.00;;
5923;SDS011;2987;50.884;14.818;2023-07-13T07:08:58;6.73;;;3.33;;
5923;SDS011;2987;50.884;14.818;2023-07-13T07:11:25;4.33;;;2.80;;
5923;SDS011;2987;50.884;14.818;2023-07-13T07:13:52;4.67;;;3.13;;
5923;SDS011;2987;50.884;14.818;2023-07-13T07:16:19;5.13;;;3.23;;
5923;SDS011;2987;50.884;14.818;2023-07-13T07:18:46;8.37;;;3.33;;
5923;SDS011;2987;50.884;14.818;2023-07-13T07:21:12;6.93;;;4.47;;
5923;SDS011;2987;50.884;14.818;2023-07-13T07:23:39;8.70;;;4.47;;
5923;SDS011;2987;50.884;14.818;2023-07-13T07:26:05;5.73;;;3.70;;
5923;SDS011;2987;50.884;14.818;2023-07-13T07:28:34;9.60;;;4.23;;
5923;SDS011;2987;50.884;14.818;2023-07-13T07:31:00;7.23;;;3.73;;
5923;SDS011;2987;50.884;14.818;2023-07-13T07:33:26;9.00;;;3.17;;
5923;SDS011;2987;50.884;14.818;2023-07-13T07:35:52;6.00;;;3.60;;
5923;SDS011;2987;50.884;14.818;2023-07-13T07:38:18;4.73;;;3.07;;
5923;SDS011;2987;50.884;14.818;2023-07-13T07:40:45;5.10;;;3.20;;
5923;SDS011;2987;50.884;14.818;2023-07-13T07:43:11;7.27;;;3.20;;
5923;SDS011;2987;50.884;14.818;2023-07-13T07:45:38;9.97;;;3.70;;
5923;SDS011;2987;50.884;14.818;2023-07-13T07:48:06;6.60;;;3.33;;
5923;SDS011;2987;50.884;14.818;2023-07-13T07:50:33;9.50;;;3.50;;
5923;SDS011;2987;50.884;14.818;2023-07-13T07:52:59;8.57;;;3.43;;
5923;SDS011;2987;50.884;14.818;2023-07-13T07:55:26;3.57;;;3.27;;
5923;SDS011;2987;50.884;14.818;2023-07-13T07:57:53;5.43;;;3.70;;
5923;SDS011;2987;50.884;14.818;2023-07-13T08:00:19;6.40;;;3.27;;
5923;SDS011;2987;50.884;14.818;2023-07-13T08:02:46;4.37;;;2.80;;
5923;SDS011;2987;50.884;14.818;2023-07-13T08:05:13;3.07;;;2.87;;
5923;SDS011;2987;50.884;14.818;2023-07-13T08:07:40;5.07;;;3.10;;
5923;SDS011;2987;50.884;14.818;2023-07-13T08:10:06;3.27;;;2.67;;
5923;SDS011;2987;50.884;14.818;2023-07-13T08:12:34;9.60;;;3.30;;
5923;SDS011;2987;50.884;14.818;2023-07-13T08:15:00;3.53;;;2.90;;
5923;SDS011;2987;50.884;14.818;2023-07-13T08:17:27;3.30;;;2.43;;
5923;SDS011;2987;50.884;14.818;2023-07-13T08:19:53;3.27;;;2.97;;
5923;SDS011;2987;50.884;14.818;2023-07-13T08:22:19;3.07;;;2.47;;
5923;SDS011;2987;50.884;14.818;2023-07-13T08:24:45;4.47;;;2.30;;
5923;SDS011;2987;50.884;14.818;2023-07-13T08:27:12;5.70;;;2.47;;
5923;SDS011;2987;50.884;14.818;2023-07-13T08:29:39;4.70;;;2.70;;
5923;SDS011;2987;50.884;14.818;2023-07-13T08:32:05;4.63;;;2.77;;
5923;SDS011;2987;50.884;14.818;2023-07-13T08:34:35;5.27;;;2.43;;
5923;SDS011;2987;50.884;14.818;2023-07-13T08:37:01;5.60;;;2.70;;
5923;SDS011;2987;50.884;14.818;2023-07-13T08:39:29;2.43;;;2.23;;
5923;SDS011;2987;50.884;14.818;2023-07-13T08:41:58;2.77;;;2.20;;
5923;SDS011;2987;50.884;14.818;2023-07-13T08:44:40;3.97;;;2.00;;
5923;SDS011;2987;50.884;14.818;2023-07-13T08:47:37;5.13;;;2.60;;
5923;SDS011;2987;50.884;14.818;2023-07-13T08:55:11;4.50;;;2.50;;
5923;SDS011;2987;50.884;14.818;2023-07-13T08:57:45;4.20;;;2.70;;
5923;SDS011;2987;50.884;14.818;2023-07-13T09:00:15;5.17;;;2.50;;
5923;SDS011;2987;50.884;14.818;2023-07-13T09:02:52;3.27;;;2.53;;
5923;SDS011;2987;50.884;14.818;2023-07-13T09:05:30;3.30;;;2.57;;
5923;SDS011;2987;50.884;14.818;2023-07-13T09:08:10;2.97;;;2.67;;
5923;SDS011;2987;50.884;14.818;2023-07-13T09:10:43;4.33;;;2.80;;
5923;SDS011;2987;50.884;14.818;2023-07-13T09:13:21;5.03;;;2.40;;
5923;SDS011;2987;50.884;14.818;2023-07-13T09:15:57;2.33;;;2.07;;
5923;SDS011;2987;50.884;14.818;2023-07-13T09:18:27;2.53;;;2.20;;
5923;SDS011;2987;50.884;14.818;2023-07-13T09:21:00;4.87;;;2.60;;
5923;SDS011;2987;50.884;14.818;2023-07-13T09:23:30;8.30;;;2.60;;
5923;SDS011;2987;50.884;14.818;2023-07-13T09:26:00;4.50;;;2.73;;
5923;SDS011;2987;50.884;14.818;2023-07-13T09:28:34;6.13;;;2.63;;
5923;SDS011;2987;50.884;14.818;2023-07-13T09:31:05;3.60;;;2.37;;
5923;SDS011;2987;50.884;14.818;2023-07-13T09:33:38;3.23;;;2.50;;
5923;SDS011;2987;50.884;14.818;2023-07-13T09:36:23;2.70;;;2.17;;
5923;SDS011;2987;50.884;14.818;2023-07-13T09:39:02;5.60;;;2.43;;
5923;SDS011;2987;50.884;14.818;2023-07-13T09:41:39;3.37;;;2.00;;
5923;SDS011;2987;50.884;14.818;2023-07-13T09:49:24;3.20;;;2.20;;
5923;SDS011;2987;50.884;14.818;2023-07-13T09:51:57;3.33;;;2.30;;
5923;SDS011;2987;50.884;14.818;2023-07-13T09:54:26;2.83;;;2.30;;
5923;SDS011;2987;50.884;14.818;2023-07-13T09:56:53;8.30;;;2.30;;
5923;SDS011;2987;50.884;14.818;2023-07-13T09:59:23;4.27;;;2.23;;
5923;SDS011;2987;50.884;14.818;2023-07-13T10:01:54;4.33;;;2.43;;
5923;SDS011;2987;50.884;14.818;2023-07-13T10:04:22;3.80;;;1.63;;
5923;SDS011;2987;50.884;14.818;2023-07-13T10:07:04;4.87;;;2.40;;
5923;SDS011;2987;50.884;14.818;2023-07-13T10:09:33;3.73;;;2.07;;
5923;SDS011;2987;50.884;14.818;2023-07-13T10:11:59;3.13;;;2.30;;
5923;SDS011;2987;50.884;14.818;2023-07-13T10:14:25;4.53;;;2.10;;
5923;SDS011;2987;50.884;14.818;2023-07-13T10:16:55;5.30;;;2.30;;
5923;SDS011;2987;50.884;14.818;2023-07-13T10:19:29;4.77;;;2.43;;
5923;SDS011;2987;50.884;14.818;2023-07-13T10:22:00;5.20;;;2.33;;
5923;SDS011;2987;50.884;14.818;2023-07-13T10:24:36;3.20;;;2.30;;
5923;SDS011;2987;50.884;14.818;2023-07-13T10:27:10;5.33;;;2.30;;
5923;SDS011;2987;50.884;14.818;2023-07-13T10:29:43;3.97;;;2.30;;
5923;SDS011;2987;50.884;14.818;2023-07-13T10:32:18;2.93;;;1.80;;
5923;SDS011;2987;50.884;14.818;2023-07-13T10:34:47;3.43;;;2.00;;
5923;SDS011;2987;50.884;14.818;2023-07-13T10:37:16;3.70;;;1.90;;
5923;SDS011;2987;50.884;14.818;2023-07-13T10:39:48;3.23;;;2.07;;
5923;SDS011;2987;50.884;14.818;2023-07-13T10:42:23;3.43;;;2.30;;
5923;SDS011;2987;50.884;14.818;2023-07-13T10:44:53;5.33;;;2.80;;
5923;SDS011;2987;50.884;14.818;2023-07-13T10:47:20;4.03;;;2.07;;
5923;SDS011;2987;50.884;14.818;2023-07-13T10:49:46;5.77;;;1.80;;
5923;SDS011;2987;50.884;14.818;2023-07-13T10:55:02;6.27;;;2.10;;
5923;SDS011;2987;50.884;14.818;2023-07-13T10:57:29;3.13;;;1.63;;
5923;SDS011;2987;50.884;14.818;2023-07-13T11:04:54;4.83;;;1.97;;
5923;SDS011;2987;50.884;14.818;2023-07-13T11:07:24;3.27;;;1.50;;
5923;SDS011;2987;50.884;14.818;2023-07-13T11:09:56;2.67;;;1.37;;
5923;SDS011;2987;50.884;14.818;2023-07-13T11:12:26;4.27;;;1.80;;
5923;SDS011;2987;50.884;14.818;2023-07-13T11:15:13;4.37;;;2.23;;
5923;SDS011;2987;50.884;14.818;2023-07-13T11:17:54;5.00;;;1.53;;
5923;SDS011;2987;50.884;14.818;2023-07-13T11:20:34;3.33;;;1.50;;
5923;SDS011;2987;50.884;14.818;2023-07-13T11:23:07;4.03;;;1.40;;
5923;SDS011;2987;50.884;14.818;2023-07-13T11:25:43;6.80;;;1.60;;
5923;SDS011;2987;50.884;14.818;2023-07-13T11:28:17;2.70;;;1.60;;
5923;SDS011;2987;50.884;14.818;2023-07-13T11:31:00;5.70;;;1.70;;
5923;SDS011;2987;50.884;14.818;2023-07-13T11:33:31;2.83;;;1.43;;
5923;SDS011;2987;50.884;14.818;2023-07-13T11:36:16;2.00;;;1.53;;
5923;SDS011;2987;50.884;14.818;2023-07-13T11:38:51;6.00;;;1.80;;
5923;SDS011;2987;50.884;14.818;2023-07-13T11:41:30;6.47;;;1.80;;
5923;SDS011;2987;50.884;14.818;2023-07-13T11:49:16;3.00;;;1.40;;
5923;SDS011;2987;50.884;14.818;2023-07-13T11:51:43;4.40;;;1.90;;
5923;SDS011;2987;50.884;14.818;2023-07-13T11:54:22;4.30;;;1.60;;
5923;SDS011;2987;50.884;14.818;2023-07-13T11:56:54;5.33;;;1.50;;
5923;SDS011;2987;50.884;14.818;2023-07-13T11:59:23;4.00;;;1.50;;
5923;SDS011;2987;50.884;14.818;2023-07-13T12:01:51;3.57;;;1.57;;
5923;SDS011;2987;50.884;14.818;2023-07-13T12:04:22;6.07;;;1.80;;
5923;SDS011;2987;50.884;14.818;2023-07-13T12:06:55;5.87;;;1.60;;
5923;SDS011;2987;50.884;14.818;2023-07-13T12:09:25;3.47;;;1.70;;
5923;SDS011;2987;50.884;14.818;2023-07-13T12:11:53;3.93;;;1.83;;
5923;SDS011;2987;50.884;14.818;2023-07-13T12:14:19;2.97;;;1.50;;
5923;SDS011;2987;50.884;14.818;2023-07-13T12:16:46;2.93;;;1.40;;
5923;SDS011;2987;50.884;14.818;2023-07-13T12:19:16;7.90;;;1.80;;
5923;SDS011;2987;50.884;14.818;2023-07-13T12:24:14;2.40;;;1.40;;
5923;SDS011;2987;50.884;14.818;2023-07-13T12:26:42;1.90;;;1.70;;
5923;SDS011;2987;50.884;14.818;2023-07-13T12:29:11;2.60;;;1.63;;
5923;SDS011;2987;50.884;14.818;2023-07-13T12:31:42;2.97;;;1.43;;
5923;SDS011;2987;50.884;14.818;2023-07-13T12:34:15;4.07;;;1.70;;
5923;SDS011;2987;50.884;14.818;2023-07-13T12:36:52;1.70;;;1.57;;
5923;SDS011;2987;50.884;14.818;2023-07-13T12:39:25;2.40;;;1.30;;
5923;SDS011;2987;50.884;14.818;2023-07-13T12:44:53;2.73;;;1.50;;
5923;SDS011;2987;50.884;14.818;2023-07-13T12:47:23;5.73;;;1.70;;
5923;SDS011;2987;50.884;14.818;2023-07-13T12:54:53;3.20;;;1.27;;
5923;SDS011;2987;50.884;14.818;2023-07-13T12:57:22;3.43;;;1.27;;
5923;SDS011;2987;50.884;14.818;2023-07-13T12:59:53;2.90;;;1.60;;
5923;SDS011;2987;50.884;14.818;2023-07-13T13:02:22;2.43;;;1.50;;
5923;SDS011;2987;50.884;14.818;2023-07-13T13:04:55;2.73;;;1.60;;
5923;SDS011;2987;50.884;14.818;2023-07-13T13:07:23;2.27;;;1.40;;
5923;SDS011;2987;50.884;14.818;2023-07-13T13:09:49;2.20;;;1.47;;
5923;SDS011;2987;50.884;14.818;2023-07-13T13:12:15;2.70;;;1.50;;
5923;SDS011;2987;50.884;14.818;2023-07-13T13:14:42;3.20;;;1.23;;
5923;SDS011;2987;50.884;14.818;2023-07-13T13:17:18;2.03;;;1.30;;
5923;SDS011;2987;50.884;14.818;2023-07-13T13:19:45;3.30;;;1.60;;
5923;SDS011;2987;50.884;14.818;2023-07-13T13:22:12;2.53;;;1.50;;
5923;SDS011;2987;50.884;14.818;2023-07-13T13:24:39;5.10;;;2.07;;
5923;SDS011;2987;50.884;14.818;2023-07-13T13:27:10;5.10;;;1.70;;
5923;SDS011;2987;50.884;14.818;2023-07-13T13:29:43;1.90;;;1.37;;
5923;SDS011;2987;50.884;14.818;2023-07-13T13:32:12;3.20;;;1.37;;
5923;SDS011;2987;50.884;14.818;2023-07-13T13:34:39;2.60;;;1.50;;
5923;SDS011;2987;50.884;14.818;2023-07-13T13:37:10;4.87;;;1.67;;
5923;SDS011;2987;50.884;14.818;2023-07-13T13:39:46;3.93;;;1.63;;
5923;SDS011;2987;50.884;14.818;2023-07-13T13:42:12;5.20;;;1.40;;
5923;SDS011;2987;50.884;14.818;2023-07-13T13:44:39;3.23;;;1.60;;
5923;SDS011;2987;50.884;14.818;2023-07-13T13:47:07;2.60;;;1.70;;
5923;SDS011;2987;50.884;14.818;2023-07-13T13:49:59;3.17;;;1.77;;
5923;SDS011;2987;50.884;14.818;2023-07-13T13:52:26;2.43;;;1.60;;
5923;SDS011;2987;50.884;14.818;2023-07-13T13:54:52;3.33;;;1.63;;
5923;SDS011;2987;50.884;14.818;2023-07-13T13:57:23;3.03;;;1.40;;
5923;SDS011;2987;50.884;14.818;2023-07-13T13:59:50;3.90;;;1.70;;
5923;SDS011;2987;50.884;14.818;2023-07-13T14:04:53;2.33;;;1.60;;
5923;SDS011;2987;50.884;14.818;2023-07-13T14:07:22;2.27;;;1.33;;
5923;SDS011;2987;50.884;14.818;2023-07-13T14:09:48;4.03;;;1.87;;
5923;SDS011;2987;50.884;14.818;2023-07-13T14:12:14;3.03;;;1.60;;
5923;SDS011;2987;50.884;14.818;2023-07-13T14:14:40;2.93;;;1.50;;
5923;SDS011;2987;50.884;14.818;2023-07-13T14:17:11;2.40;;;1.47;;
5923;SDS011;2987;50.884;14.818;2023-07-13T14:19:49;4.23;;;1.50;;
5923;SDS011;2987;50.884;14.818;2023-07-13T14:22:17;4.50;;;1.40;;
5923;SDS011;2987;50.884;14.818;2023-07-13T14:24:43;2.63;;;1.70;;
5923;SDS011;2987;50.884;14.818;2023-07-13T14:27:10;2.30;;;1.43;;
5923;SDS011;2987;50.884;14.818;2023-07-13T14:29:37;2.43;;;1.37;;
5923;SDS011;2987;50.884;14.818;2023-07-13T14:32:04;2.97;;;1.30;;
5923;SDS011;2987;50.884;14.818;2023-07-13T14:34:31;3.40;;;1.43;;
5923;SDS011;2987;50.884;14.818;2023-07-13T14:36:57;3.97;;;1.50;;
5923;SDS011;2987;50.884;14.818;2023-07-13T14:39:23;1.27;;;1.13;;
5923;SDS011;2987;50.884;14.818;2023-07-13T14:41:51;2.90;;;1.40;;
5923;SDS011;2987;50.884;14.818;2023-07-13T14:44:22;3.00;;;1.43;;
5923;SDS011;2987;50.884;14.818;2023-07-13T14:46:51;3.63;;;1.70;;
5923;SDS011;2987;50.884;14.818;2023-07-13T14:49:34;3.07;;;1.30;;
5923;SDS011;2987;50.884;14.818;2023-07-13T14:52:09;2.73;;;1.17;;
5923;SDS011;2987;50.884;14.818;2023-07-13T14:54:39;2.33;;;1.33;;
5923;SDS011;2987;50.884;14.818;2023-07-13T14:57:09;3.23;;;2.10;;
5923;SDS011;2987;50.884;14.818;2023-07-13T14:59:37;4.90;;;1.40;;
5923;SDS011;2987;50.884;14.818;2023-07-13T15:02:09;3.33;;;1.30;;
5923;SDS011;2987;50.884;14.818;2023-07-13T15:07:25;2.13;;;1.40;;
5923;SDS011;2987;50.884;14.818;2023-07-13T15:09:51;2.00;;;1.20;;
5923;SDS011;2987;50.884;14.818;2023-07-13T15:14:43;2.97;;;1.60;;
5923;SDS011;2987;50.884;14.818;2023-07-13T15:22:25;4.20;;;1.37;;
5923;SDS011;2987;50.884;14.818;2023-07-13T15:27:17;3.40;;;1.57;;
5923;SDS011;2987;50.884;14.818;2023-07-13T15:29:43;2.13;;;1.20;;
5923;SDS011;2987;50.884;14.818;2023-07-13T15:32:12;2.27;;;1.47;;
5923;SDS011;2987;50.884;14.818;2023-07-13T15:34:40;2.90;;;1.50;;
5923;SDS011;2987;50.884;14.818;2023-07-13T15:37:11;4.30;;;1.53;;
5923;SDS011;2987;50.884;14.818;2023-07-13T15:39:40;3.03;;;1.40;;
5923;SDS011;2987;50.884;14.818;2023-07-13T15:44:48;3.43;;;1.50;;
5923;SDS011;2987;50.884;14.818;2023-07-13T15:47:14;1.67;;;1.27;;
5923;SDS011;2987;50.884;14.818;2023-07-13T15:49:41;4.07;;;1.37;;
5923;SDS011;2987;50.884;14.818;2023-07-13T15:52:12;3.57;;;1.60;;
5923;SDS011;2987;50.884;14.818;2023-07-13T15:54:44;4.37;;;1.63;;
5923;SDS011;2987;50.884;14.818;2023-07-13T15:57:10;2.07;;;1.50;;
5923;SDS011;2987;50.884;14.818;2023-07-13T15:59:37;4.30;;;1.83;;
5923;SDS011;2987;50.884;14.818;2023-07-13T16:02:10;2.87;;;1.60;;
5923;SDS011;2987;50.884;14.818;2023-07-13T16:04:41;4.20;;;1.57;;
5923;SDS011;2987;50.884;14.818;2023-07-13T16:07:09;2.20;;;1.50;;
5923;SDS011;2987;50.884;14.818;2023-07-13T16:09:36;4.90;;;1.43;;
5923;SDS011;2987;50.884;14.818;2023-07-13T16:12:08;7.80;;;1.77;;
5923;SDS011;2987;50.884;14.818;2023-07-13T16:14:38;5.17;;;1.43;;
5923;SDS011;2987;50.884;14.818;2023-07-13T16:17:05;4.80;;;2.07;;
5923;SDS011;2987;50.884;14.818;2023-07-13T16:19:40;10.63;;;2.10;;